createdAt,value
2022-12-29T00:02:17.088Z,97776.69
2022-12-29T00:04:43.976Z,97786.31
2022-12-29T00:07:11.204Z,97780.22
2022-12-29T00:09:37.889Z,97785.78
2022-12-29T00:12:05.604Z,97777.44
2022-12-29T00:14:50.648Z,97790.75
2022-12-29T00:17:17.335Z,97783.31
2022-12-29T00:20:03.235Z,97778.97
2022-12-29T00:22:48.812Z,97777.09
2022-12-29T00:25:34.548Z,97775.44
2022-12-29T00:28:19.896Z,97767.03
2022-12-29T00:31:05.265Z,97774.91
2022-12-29T00:33:52.544Z,97771.91
2022-12-29T00:36:20.891Z,97764.66
2022-12-29T00:39:29.671Z,97776.22
2022-12-29T00:42:25.627Z,97769.47
2022-12-29T00:44:52.366Z,97757.53
2022-12-29T00:47:19.043Z,97768.97
2022-12-29T00:49:45.798Z,97750.34
2022-12-29T00:52:13.841Z,97763.03
2022-12-29T00:54:41.949Z,97758.78
2022-12-29T00:57:10.499Z,97740.63
2022-12-29T00:59:41.600Z,97748.91
2022-12-29T01:02:09.443Z,97744.50
2022-12-29T01:04:37.164Z,97769.22
2022-12-29T01:07:04.567Z,97751.56
2022-12-29T01:09:50.890Z,97750.31
2022-12-29T01:12:38.159Z,97741.47
2022-12-29T01:15:05.474Z,97756.50
2022-12-29T01:17:32.219Z,97755.97
2022-12-29T01:19:58.927Z,97757.22
2022-12-29T01:22:25.600Z,97736.38
2022-12-29T01:24:52.260Z,97743.66
2022-12-29T01:27:18.965Z,97748.56
2022-12-29T01:29:45.722Z,97734.94
2022-12-29T01:32:12.373Z,97722.19
2022-12-29T01:34:39.061Z,97713.06
2022-12-29T01:37:05.821Z,97723.50
2022-12-29T01:39:32.839Z,97726.84
2022-12-29T01:41:59.537Z,97720.84
2022-12-29T01:44:51.545Z,97709.38
2022-12-29T01:47:30.286Z,97724.97
2022-12-29T01:49:59.942Z,97726.59
2022-12-29T01:52:31.239Z,97713.19
2022-12-29T01:55:00.128Z,97711.06
2022-12-29T01:57:32.469Z,97719.53
2022-12-29T02:00:10.271Z,97723.78
2022-12-29T02:02:41.692Z,97719.06
2022-12-29T02:05:16.391Z,97723.44
2022-12-29T02:07:46.015Z,97723.19
2022-12-29T02:10:13.737Z,97713.44
2022-12-29T02:12:41.706Z,97717.69
2022-12-29T02:15:09.267Z,97736.41
2022-12-29T02:17:59.229Z,97724.09
2022-12-29T02:20:28.944Z,97706.91
2022-12-29T02:23:17.417Z,97692.91
2022-12-29T02:26:03.578Z,97710.97
2022-12-29T02:28:45.617Z,97708.34
2022-12-29T02:31:36.061Z,97696.94
2022-12-29T02:34:36.387Z,97695.75
2022-12-29T02:37:03.013Z,97691.94
2022-12-29T02:39:46.800Z,97687.94
2022-12-29T02:42:31.868Z,97679.88
2022-12-29T02:45:03.635Z,97676.88
2022-12-29T02:47:39.196Z,97671.47
2022-12-29T02:50:23.720Z,97652.91
2022-12-29T02:53:07.427Z,97665.06
2022-12-29T02:55:34.829Z,97662.94
2022-12-29T02:58:18.426Z,97657.75
2022-12-29T03:01:26.882Z,97666.59
2022-12-29T03:04:05.744Z,97643.41
2022-12-29T03:07:00.508Z,97658.25
2022-12-29T03:09:37.501Z,97665.19
2022-12-29T03:12:59.926Z,97651.91
2022-12-29T03:15:55.577Z,97640.91
2022-12-29T03:18:45.171Z,97691.94
2022-12-29T03:21:55.702Z,97656.97
2022-12-29T03:24:32.147Z,97659.59
2022-12-29T03:27:03.142Z,97655.06
2022-12-29T03:29:40.008Z,97658.25
2022-12-29T03:32:09.969Z,97637.19
2022-12-29T03:34:39.295Z,97649.28
2022-12-29T03:37:11.205Z,97648.19
2022-12-29T03:39:38.617Z,97639.88
2022-12-29T03:42:16.179Z,97631.56
2022-12-29T03:44:45.208Z,97636.53
2022-12-29T03:47:15.504Z,97628.13
2022-12-29T03:49:44.386Z,97633.38
2022-12-29T03:52:12.049Z,97636.19
2022-12-29T03:54:43.067Z,97633.28
2022-12-29T03:57:11.441Z,97626.72
2022-12-29T04:00:06.617Z,97649.28
2022-12-29T04:02:42.828Z,97637.81
2022-12-29T04:05:14.417Z,97642.38
2022-12-29T04:07:41.134Z,97639.44
2022-12-29T04:10:08.542Z,97639.25
2022-12-29T04:12:35.921Z,97618.06
2022-12-29T04:15:02.877Z,97625.53
2022-12-29T04:17:29.841Z,97621.59
2022-12-29T04:20:16.517Z,97635.56
2022-12-29T04:22:43.518Z,97640.25
2022-12-29T04:25:10.240Z,97633.59
2022-12-29T04:27:37.544Z,97623.06
2022-12-29T04:30:27.127Z,97639.50
2022-12-29T04:33:04.428Z,97636.00
2022-12-29T04:35:31.187Z,97637.34
2022-12-29T04:37:57.839Z,97634.63
2022-12-29T04:40:24.796Z,97633.63
2022-12-29T04:42:51.581Z,97630.31
2022-12-29T04:45:20.050Z,97639.66
2022-12-29T04:47:59.064Z,97636.94
2022-12-29T04:50:58.200Z,97646.03
2022-12-29T04:53:26.202Z,97625.28
2022-12-29T04:55:54.394Z,97638.06
2022-12-29T04:58:23.270Z,97637.31
2022-12-29T05:00:52.297Z,97647.47
2022-12-29T05:03:21.644Z,97644.38
2022-12-29T05:05:49.141Z,97637.19
2022-12-29T05:08:16.058Z,97638.09
2022-12-29T05:10:46.498Z,97625.84
2022-12-29T05:13:13.678Z,97627.66
2022-12-29T05:15:48.670Z,97631.00
2022-12-29T05:18:15.452Z,97628.09
2022-12-29T05:20:42.718Z,97613.69
2022-12-29T05:23:09.640Z,97613.19
2022-12-29T05:25:36.419Z,97614.47
2022-12-29T05:28:29.996Z,97608.38
2022-12-29T05:31:05.938Z,97625.84
2022-12-29T05:33:32.832Z,97609.28
2022-12-29T05:36:08.193Z,97602.13
2022-12-29T05:38:36.421Z,97602.53
2022-12-29T05:41:03.212Z,97592.53
2022-12-29T05:43:50.147Z,97601.28
2022-12-29T05:46:28.941Z,97595.75
2022-12-29T05:49:08.297Z,97602.09
2022-12-29T05:51:53.397Z,97589.16
2022-12-29T05:54:20.124Z,97573.84
2022-12-29T05:56:46.980Z,97592.59
2022-12-29T05:59:13.776Z,97606.44
2022-12-29T06:01:40.858Z,97600.03
2022-12-29T06:04:08.078Z,97595.44
2022-12-29T06:06:35.329Z,97583.53
2022-12-29T06:09:03.175Z,97587.09
2022-12-29T06:11:29.904Z,97601.63
2022-12-29T06:13:59.106Z,97587.56
2022-12-29T06:16:25.854Z,97601.88
2022-12-29T06:18:55.812Z,97597.00
2022-12-29T06:21:22.636Z,97605.38
2022-12-29T06:23:49.332Z,97594.72
2022-12-29T06:26:17.205Z,97592.94
2022-12-29T06:28:44.349Z,97594.66
2022-12-29T06:31:12.072Z,97613.44
2022-12-29T06:33:39.382Z,97624.25
2022-12-29T06:36:06.608Z,97605.03
2022-12-29T06:38:33.886Z,97611.50
2022-12-29T06:41:00.652Z,97624.34
2022-12-29T06:43:45.906Z,97621.25
2022-12-29T06:46:29.526Z,97622.19
2022-12-29T06:48:56.243Z,97621.69
2022-12-29T06:51:22.871Z,97638.66
2022-12-29T06:53:49.634Z,97619.47
2022-12-29T06:56:16.400Z,97620.03
2022-12-29T06:58:43.055Z,97636.50
2022-12-29T07:01:09.767Z,97621.00
2022-12-29T07:03:36.608Z,97647.88
2022-12-29T07:06:04.143Z,97634.81
2022-12-29T07:08:30.843Z,97655.94
2022-12-29T07:10:57.455Z,97642.53
2022-12-29T07:13:24.205Z,97648.09
2022-12-29T07:15:50.928Z,97647.41
2022-12-29T07:18:17.663Z,97655.72
2022-12-29T07:20:44.419Z,97654.91
2022-12-29T07:23:11.167Z,97654.19
2022-12-29T07:25:37.887Z,97660.06
2022-12-29T07:28:04.911Z,97665.03
2022-12-29T07:30:31.606Z,97650.56
2022-12-29T07:32:58.339Z,97668.91
2022-12-29T07:35:25.067Z,97664.66
2022-12-29T07:37:51.809Z,97665.63
2022-12-29T07:40:18.491Z,97673.09
2022-12-29T07:42:45.210Z,97681.59
2022-12-29T07:45:13.080Z,97661.25
2022-12-29T07:47:53.771Z,97651.44
2022-12-29T07:50:20.459Z,97685.09
2022-12-29T07:52:48.778Z,97677.09
2022-12-29T07:55:16.974Z,97678.25
2022-12-29T07:57:43.909Z,97667.13
2022-12-29T08:00:11.319Z,97682.53
2022-12-29T08:02:40.731Z,97679.22
2022-12-29T08:05:07.757Z,97697.81
2022-12-29T08:07:34.418Z,97692.78
2022-12-29T08:10:02.374Z,97694.97
2022-12-29T08:12:29.432Z,97702.84
2022-12-29T08:14:56.194Z,97708.59
2022-12-29T08:17:22.887Z,97701.78
2022-12-29T08:19:49.803Z,97710.34
2022-12-29T08:22:16.768Z,97710.34
2022-12-29T08:24:43.542Z,97708.22
2022-12-29T08:27:18.025Z,97726.00
2022-12-29T08:29:46.958Z,97729.03
2022-12-29T08:32:13.938Z,97727.25
2022-12-29T08:34:40.851Z,97731.03
2022-12-29T08:37:07.554Z,97730.38
2022-12-29T08:39:34.796Z,97734.41
2022-12-29T08:42:01.630Z,97744.09
2022-12-29T08:44:28.338Z,97755.44
2022-12-29T08:46:55.065Z,97739.88
2022-12-29T08:49:22.026Z,97748.75
2022-12-29T08:51:48.688Z,97747.16
2022-12-29T08:54:15.288Z,97755.91
2022-12-29T08:56:41.960Z,97748.59
2022-12-29T08:59:09.005Z,97755.63
2022-12-29T09:01:37.398Z,97753.09
2022-12-29T09:04:14.821Z,97757.91
2022-12-29T09:06:42.066Z,97755.78
2022-12-29T09:09:08.762Z,97735.03
2022-12-29T09:11:35.536Z,97758.50
2022-12-29T09:14:02.191Z,97758.81
2022-12-29T09:16:29.059Z,97760.38
2022-12-29T09:18:55.807Z,97739.16
2022-12-29T09:21:22.562Z,97759.47
2022-12-29T09:23:49.403Z,97756.53
2022-12-29T09:26:16.070Z,97765.09
2022-12-29T09:28:43.183Z,97757.88
2022-12-29T09:31:09.924Z,97773.59
2022-12-29T09:33:36.940Z,97763.13
2022-12-29T09:36:04.168Z,97781.44
2022-12-29T09:38:31.615Z,97775.34
2022-12-29T09:41:16.733Z,97805.41
2022-12-29T09:44:07.995Z,97809.19
2022-12-29T09:46:42.980Z,97795.38
2022-12-29T09:49:42.069Z,97795.13
2022-12-29T09:52:15.797Z,97803.66
2022-12-29T09:55:02.842Z,97806.88
2022-12-29T09:57:48.017Z,97806.31
2022-12-29T10:00:18.274Z,97810.69
2022-12-29T10:02:51.075Z,97814.47
2022-12-29T10:05:42.015Z,97827.13
2022-12-29T10:08:27.169Z,97827.69
2022-12-29T10:11:26.152Z,97819.22
2022-12-29T10:14:25.108Z,97827.22
2022-12-29T10:17:13.576Z,97823.78
2022-12-29T10:19:49.370Z,97840.19
2022-12-29T10:22:19.034Z,97830.38
2022-12-29T10:24:49.667Z,97825.28
2022-12-29T10:27:17.821Z,97827.72
2022-12-29T10:29:50.351Z,97817.78
2022-12-29T10:32:24.066Z,97821.03
2022-12-29T10:34:56.271Z,97816.00
2022-12-29T10:37:39.829Z,97819.88
2022-12-29T10:40:33.987Z,97809.66
2022-12-29T10:43:01.893Z,97809.97
2022-12-29T10:45:33.608Z,97795.00
2022-12-29T10:48:10.269Z,97811.53
2022-12-29T10:50:43.724Z,97805.69
2022-12-29T10:53:22.838Z,97800.44
2022-12-29T10:55:50.986Z,97802.63
2022-12-29T10:58:18.493Z,97805.69
2022-12-29T11:00:52.830Z,97812.44
2022-12-29T11:03:25.427Z,97794.13
2022-12-29T11:06:02.380Z,97806.06
2022-12-29T11:08:36.356Z,97811.06
2022-12-29T11:11:06.118Z,97813.13
2022-12-29T11:13:39.212Z,97791.06
2022-12-29T11:16:06.619Z,97797.16
2022-12-29T11:18:40.789Z,97809.56
2022-12-29T11:21:26.704Z,97802.66
2022-12-29T11:24:05.348Z,97816.50
2022-12-29T11:26:34.783Z,97808.06
2022-12-29T11:29:17.104Z,97810.50
2022-12-29T11:31:47.571Z,97806.03
2022-12-29T11:34:34.096Z,97819.53
2022-12-29T11:37:13.046Z,97816.50
2022-12-29T11:39:51.924Z,97827.41
2022-12-29T11:42:23.226Z,97819.50
2022-12-29T11:44:52.250Z,97815.91
2022-12-29T11:47:31.923Z,97813.72
2022-12-29T11:50:02.772Z,97823.16
2022-12-29T11:52:34.171Z,97817.75
2022-12-29T11:55:03.171Z,97814.59
2022-12-29T11:57:31.121Z,97808.47
2022-12-29T12:00:00.834Z,97803.97
2022-12-29T12:02:38.763Z,97799.00
2022-12-29T12:05:29.138Z,97781.16
2022-12-29T12:08:20.484Z,97780.47
2022-12-29T12:10:57.539Z,97782.03
2022-12-29T12:13:34.415Z,97772.50
2022-12-29T12:16:14.157Z,97779.88
2022-12-29T12:19:03.688Z,97769.31
2022-12-29T12:21:44.849Z,97773.78
2022-12-29T12:24:30.571Z,97772.69
2022-12-29T12:27:16.240Z,97789.53
2022-12-29T12:30:01.637Z,97782.47
2022-12-29T12:32:44.241Z,97776.25
2022-12-29T12:35:21.815Z,97772.69
2022-12-29T12:38:04.676Z,97786.22
2022-12-29T12:41:00.199Z,97778.75
2022-12-29T12:43:42.375Z,97772.91
2022-12-29T12:46:31.376Z,97781.41
2022-12-29T12:49:35.824Z,97785.19
2022-12-29T12:52:11.853Z,97785.19
2022-12-29T12:54:53.695Z,97786.63
2022-12-29T12:57:32.816Z,97781.38
2022-12-29T13:00:09.904Z,97775.44
2022-12-29T13:03:11.543Z,97797.69
2022-12-29T13:05:58.993Z,97787.97
2022-12-29T13:08:46.744Z,97788.41
2022-12-29T13:11:44.224Z,97782.38
2022-12-29T13:14:35.488Z,97791.34
2022-12-29T13:17:12.693Z,97783.75
2022-12-29T13:19:39.339Z,97789.91
2022-12-29T13:22:14.695Z,97791.47
2022-12-29T13:25:03.347Z,97784.31
2022-12-29T13:28:21.876Z,97778.53
2022-12-29T13:31:06.422Z,97780.72
2022-12-29T13:33:56.856Z,97795.66
2022-12-29T13:36:45.488Z,97790.72
2022-12-29T13:39:21.523Z,97783.19
2022-12-29T13:41:52.252Z,97769.72
2022-12-29T13:44:26.393Z,97775.66
2022-12-29T13:46:55.710Z,97776.59
2022-12-29T13:49:25.443Z,97772.84
2022-12-29T13:51:58.806Z,97780.16
2022-12-29T13:54:57.417Z,97779.41
2022-12-29T13:57:38.570Z,97787.16
2022-12-29T14:00:19.000Z,97794.31
2022-12-29T14:02:45.872Z,97786.09
2022-12-29T14:05:18.762Z,97788.16
2022-12-29T14:07:46.158Z,97790.66
2022-12-29T14:10:37.084Z,97791.72
2022-12-29T14:13:26.008Z,97800.72
2022-12-29T14:15:55.758Z,97800.78
2022-12-29T14:18:25.483Z,97796.78
2022-12-29T14:21:10.177Z,97797.75
2022-12-29T14:23:40.974Z,97799.31
2022-12-29T14:26:07.610Z,97807.66
2022-12-29T14:28:39.957Z,97808.03
2022-12-29T14:31:15.954Z,97811.91
2022-12-29T14:34:09.538Z,97805.38
2022-12-29T14:36:37.553Z,97807.44
2022-12-29T14:39:06.133Z,97819.88
2022-12-29T14:41:40.108Z,97807.28
2022-12-29T14:44:19.570Z,97810.34
2022-12-29T14:46:55.336Z,97814.19
2022-12-29T14:49:25.804Z,97811.78
2022-12-29T14:51:55.888Z,97821.03
2022-12-29T14:54:34.502Z,97824.94
2022-12-29T14:57:04.714Z,97820.59
2022-12-29T14:59:34.884Z,97824.53
2022-12-29T15:02:05.833Z,97825.28
2022-12-29T15:04:36.412Z,97835.41
2022-12-29T15:07:08.148Z,97837.41
2022-12-29T15:09:39.669Z,97847.13
2022-12-29T15:12:43.094Z,97835.78
2022-12-29T15:15:32.046Z,97843.53
2022-12-29T15:18:14.356Z,97846.84
2022-12-29T15:20:43.244Z,97844.31
2022-12-29T15:23:15.879Z,97856.34
2022-12-29T15:25:55.237Z,97862.75
2022-12-29T15:28:23.153Z,97855.81
2022-12-29T15:31:06.531Z,97851.72
2022-12-29T15:33:44.023Z,97860.00
2022-12-29T15:36:13.760Z,97851.34
2022-12-29T15:38:40.990Z,97869.63
2022-12-29T15:41:23.477Z,97866.97
2022-12-29T15:44:01.435Z,97877.00
2022-12-29T15:46:31.990Z,97866.97
2022-12-29T15:48:59.187Z,97872.53
2022-12-29T15:51:35.892Z,97872.38
2022-12-29T15:54:03.372Z,97866.78
2022-12-29T15:56:32.083Z,97880.56
2022-12-29T15:59:00.169Z,97875.38
2022-12-29T16:01:33.345Z,97882.44
2022-12-29T16:04:03.740Z,97877.81
2022-12-29T16:06:39.224Z,97883.38
2022-12-29T16:09:36.175Z,97875.09
2022-12-29T16:12:09.235Z,97874.41
2022-12-29T16:14:45.408Z,97882.97
2022-12-29T16:17:21.777Z,97886.78
2022-12-29T16:19:53.720Z,97893.75
2022-12-29T16:22:37.463Z,97901.19
2022-12-29T16:25:26.169Z,97909.06
2022-12-29T16:27:53.488Z,97911.78
2022-12-29T16:30:32.830Z,97913.44
2022-12-29T16:33:04.058Z,97905.09
2022-12-29T16:35:45.777Z,97915.28
2022-12-29T16:38:23.705Z,97917.63
2022-12-29T16:41:03.216Z,97907.88
2022-12-29T16:43:35.611Z,97918.13
2022-12-29T16:46:02.282Z,97919.72
2022-12-29T16:48:36.487Z,97912.56
2022-12-29T16:51:07.074Z,97910.00
2022-12-29T16:53:38.041Z,97905.53
2022-12-29T16:56:17.392Z,97905.91
2022-12-29T16:58:54.544Z,97899.56
2022-12-29T17:01:21.607Z,97897.53
2022-12-29T17:03:54.797Z,97899.31
2022-12-29T17:06:23.363Z,97898.41
2022-12-29T17:08:51.430Z,97908.84
2022-12-29T17:11:49.242Z,97907.84
2022-12-29T17:14:43.144Z,97914.19
2022-12-29T17:17:19.724Z,97916.50
2022-12-29T17:19:51.677Z,97915.88
2022-12-29T17:22:26.046Z,97914.63
2022-12-29T17:24:58.248Z,97910.56
2022-12-29T17:27:34.312Z,97907.47
2022-12-29T17:30:11.901Z,97909.03
2022-12-29T17:32:40.357Z,97913.06
2022-12-29T17:35:14.844Z,97921.81
2022-12-29T17:37:43.828Z,97923.03
2022-12-29T17:40:16.104Z,97917.66
2022-12-29T17:42:46.086Z,97914.19
2022-12-29T17:45:17.231Z,97917.50
2022-12-29T17:47:44.494Z,97924.34
2022-12-29T17:50:16.979Z,97925.75
2022-12-29T17:53:00.699Z,97924.13
2022-12-29T17:55:37.234Z,97928.69
2022-12-29T17:58:19.991Z,97930.13
2022-12-29T18:00:48.922Z,97926.25
2022-12-29T18:03:17.890Z,97923.34
2022-12-29T18:05:45.415Z,97924.19
2022-12-29T18:08:12.527Z,97928.69
2022-12-29T18:10:40.003Z,97931.34
2022-12-29T18:13:07.421Z,97940.59
2022-12-29T18:15:36.565Z,97941.91
2022-12-29T18:18:13.194Z,97942.75
2022-12-29T18:20:41.473Z,97947.63
2022-12-29T18:23:27.491Z,97953.66
2022-12-29T18:25:59.312Z,97956.94
2022-12-29T18:28:26.984Z,97957.81
2022-12-29T18:30:55.979Z,97963.09
2022-12-29T18:33:26.225Z,97954.50
2022-12-29T18:36:02.980Z,97945.53
2022-12-29T18:38:30.347Z,97953.56
2022-12-29T18:40:58.779Z,97958.22
2022-12-29T18:43:26.146Z,97959.06
2022-12-29T18:45:53.520Z,97955.84
2022-12-29T18:48:21.040Z,97950.72
2022-12-29T18:50:53.316Z,97953.56
2022-12-29T18:53:23.312Z,97954.75
2022-12-29T18:55:51.207Z,97958.09
2022-12-29T18:58:18.255Z,97961.25
2022-12-29T19:00:46.649Z,97965.31
2022-12-29T19:03:15.717Z,97980.69
2022-12-29T19:05:44.295Z,97967.47
2022-12-29T19:08:12.755Z,97976.19
2022-12-29T19:10:41.902Z,97963.34
2022-12-29T19:13:17.450Z,97974.63
2022-12-29T19:15:46.626Z,97971.56
2022-12-29T19:21:08.216Z,97975.72
2022-12-29T19:23:35.310Z,97972.28
2022-12-29T19:26:02.465Z,97978.34
2022-12-29T19:28:29.281Z,97981.81
2022-12-29T19:31:00.008Z,97980.63
2022-12-29T19:33:28.149Z,97976.88
2022-12-29T19:36:00.020Z,97978.72
2022-12-29T19:38:26.790Z,97989.16
2022-12-29T19:40:53.595Z,97997.06
2022-12-29T19:43:20.637Z,97993.06
2022-12-29T19:45:47.386Z,97993.50
2022-12-29T19:48:16.442Z,97987.91
2022-12-29T19:50:44.073Z,97992.22
2022-12-29T19:53:11.901Z,97998.19
2022-12-29T19:55:43.247Z,98010.94
2022-12-29T19:58:10.243Z,98022.78
2022-12-29T20:00:39.981Z,98013.69
2022-12-29T20:03:07.066Z,98012.63
2022-12-29T20:05:33.952Z,98013.94
2022-12-29T20:08:00.612Z,98014.06
2022-12-29T20:10:27.680Z,98024.69
2022-12-29T20:12:54.358Z,98026.16
2022-12-29T20:15:21.132Z,98030.56
2022-12-29T20:18:15.445Z,98038.06
2022-12-29T20:20:34.710Z,98042.66
2022-12-29T20:23:01.385Z,98049.34
2022-12-29T20:25:46.612Z,98051.34
2022-12-29T20:28:15.803Z,98048.50
2022-12-29T20:30:43.038Z,98048.13
2022-12-29T20:33:10.038Z,98047.50
2022-12-29T20:35:37.303Z,98050.63
2022-12-29T20:38:05.282Z,98056.66
2022-12-29T20:40:32.100Z,98051.19
2022-12-29T20:42:58.888Z,98065.50
2022-12-29T20:45:25.778Z,98076.44
2022-12-29T20:47:52.598Z,98078.31
2022-12-29T20:50:19.278Z,98082.16
2022-12-29T20:52:46.847Z,98082.25
2022-12-29T20:55:14.431Z,98088.19
2022-12-29T21:00:30.363Z,98076.09
2022-12-29T21:03:01.091Z,98075.69
2022-12-29T21:05:28.705Z,98077.28
2022-12-29T21:07:56.068Z,98085.31
2022-12-29T21:10:22.810Z,98083.31
2022-12-29T21:12:49.826Z,98092.50
2022-12-29T21:15:16.665Z,98086.69
2022-12-29T21:17:44.270Z,98094.22
2022-12-29T21:20:19.820Z,98097.56
2022-12-29T21:22:47.837Z,98104.31
2022-12-29T21:25:14.893Z,98105.78
2022-12-29T21:27:44.654Z,98102.44
2022-12-29T21:30:12.520Z,98114.84
2022-12-29T21:32:40.462Z,98113.75
2022-12-29T21:35:08.895Z,98119.41
2022-12-29T21:37:36.102Z,98118.53
2022-12-29T21:40:04.532Z,98117.59
2022-12-29T21:42:31.563Z,98116.66
2022-12-29T21:45:20.498Z,98121.41
2022-12-29T21:48:07.095Z,98119.50
2022-12-29T21:50:36.648Z,98120.34
2022-12-29T21:53:03.299Z,98137.41
2022-12-29T21:55:29.947Z,98135.28
2022-12-29T21:58:14.921Z,98136.38
2022-12-29T22:01:00.323Z,98146.16
2022-12-29T22:03:45.559Z,98149.44
2022-12-29T22:06:30.915Z,98144.56
2022-12-29T22:09:16.159Z,98145.16
2022-12-29T22:12:01.359Z,98149.50
2022-12-29T22:14:28.183Z,98150.22
2022-12-29T22:16:54.854Z,98151.25
2022-12-29T22:19:21.583Z,98163.56
2022-12-29T22:21:48.205Z,98152.84
2022-12-29T22:24:14.917Z,98161.53
2022-12-29T22:26:41.578Z,98174.50
2022-12-29T22:29:08.254Z,98175.44
2022-12-29T22:31:35.078Z,98176.31
2022-12-29T22:34:04.039Z,98164.31
2022-12-29T22:36:32.120Z,98177.59
2022-12-29T22:38:58.919Z,98174.88
2022-12-29T22:41:25.580Z,98173.75
2022-12-29T22:43:52.412Z,98186.22
2022-12-29T22:46:19.295Z,98182.63
2022-12-29T22:48:46.291Z,98197.81
2022-12-29T22:51:13.841Z,98192.00
2022-12-29T22:53:41.220Z,98198.34
2022-12-29T22:56:11.084Z,98192.41
2022-12-29T22:58:42.464Z,98194.16
2022-12-29T23:01:10.950Z,98204.25
2022-12-29T23:03:38.337Z,98210.75
2022-12-29T23:06:07.107Z,98209.63
2022-12-29T23:08:36.450Z,98214.78
2022-12-29T23:11:05.091Z,98218.28
2022-12-29T23:13:32.266Z,98212.91
2022-12-29T23:15:59.164Z,98217.66
2022-12-29T23:18:26.779Z,98224.81
2022-12-29T23:20:53.509Z,98219.84
2022-12-29T23:23:46.405Z,98216.13
2022-12-29T23:26:16.015Z,98227.03
2022-12-29T23:28:42.792Z,98222.94
2022-12-29T23:31:09.902Z,98228.03
2022-12-29T23:33:36.885Z,98224.81
2022-12-29T23:36:04.269Z,98221.97
2022-12-29T23:38:31.073Z,98229.28
2022-12-29T23:40:57.869Z,98231.94
2022-12-29T23:43:24.647Z,98231.97
2022-12-29T23:45:51.585Z,98245.13
2022-12-29T23:48:19.042Z,98236.28
2022-12-29T23:50:46.022Z,98238.84
2022-12-29T23:53:12.751Z,98242.03
2022-12-29T23:55:43.349Z,98232.19
2022-12-29T23:58:10.749Z,98228.75
